sensor_id;sensor_type;location;lat;lon;timestamp;P1;durP1;ratioP1;P2;durP2;ratioP2
47575;SDS011;33304;52.456;13.328;2023-06-01T00:00:58;2.97;;;1.00;;
47575;SDS011;33304;52.456;13.328;2023-06-01T00:03:26;4.47;;;1.20;;
47575;SDS011;33304;52.456;13.328;2023-06-01T00:05:55;0.90;;;0.90;;
47575;SDS011;33304;52.456;13.328;2023-06-01T00:08:22;0.90;;;0.90;;
47575;SDS011;33304;52.456;13.328;2023-06-01T00:10:49;1.13;;;1.03;;
47575;SDS011;33304;52.456;13.328;2023-06-01T00:13:18;1.10;;;0.97;;
47575;SDS011;33304;52.456;13.328;2023-06-01T00:15:45;1.07;;;0.97;;
47575;SDS011;33304;52.456;13.328;2023-06-01T00:18:12;1.10;;;1.00;;
47575;SDS011;33304;52.456;13.328;2023-06-01T00:20:40;1.37;;;0.90;;
47575;SDS011;33304;52.456;13.328;2023-06-01T00:23:08;1.57;;;1.07;;
47575;SDS011;33304;52.456;13.328;2023-06-01T00:25:35;1.10;;;1.00;;
47575;SDS011;33304;52.456;13.328;2023-06-01T00:28:03;1.37;;;1.07;;
47575;SDS011;33304;52.456;13.328;2023-06-01T00:30:31;2.37;;;1.10;;
47575;SDS011;33304;52.456;13.328;2023-06-01T00:32:58;1.37;;;1.10;;
47575;SDS011;33304;52.456;13.328;2023-06-01T00:35:25;1.10;;;1.10;;
47575;SDS011;33304;52.456;13.328;2023-06-01T00:37:52;1.07;;;0.97;;
47575;SDS011;33304;52.456;13.328;2023-06-01T00:40:20;1.13;;;1.07;;
47575;SDS011;33304;52.456;13.328;2023-06-01T00:42:48;1.47;;;0.80;;
47575;SDS011;33304;52.456;13.328;2023-06-01T00:45:15;1.20;;;1.00;;
47575;SDS011;33304;52.456;13.328;2023-06-01T00:47:43;1.53;;;1.30;;
47575;SDS011;33304;52.456;13.328;2023-06-01T00:50:11;1.20;;;1.00;;
47575;SDS011;33304;52.456;13.328;2023-06-01T00:52:39;1.53;;;1.10;;
47575;SDS011;33304;52.456;13.328;2023-06-01T00:55:08;1.07;;;1.00;;
47575;SDS011;33304;52.456;13.328;2023-06-01T00:57:37;1.10;;;1.00;;
47575;SDS011;33304;52.456;13.328;2023-06-01T01:00:05;1.20;;;1.10;;
47575;SDS011;33304;52.456;13.328;2023-06-01T01:02:38;1.07;;;0.80;;
47575;SDS011;33304;52.456;13.328;2023-06-01T01:05:09;0.90;;;0.90;;
47575;SDS011;33304;52.456;13.328;2023-06-01T01:07:38;1.20;;;1.10;;
47575;SDS011;33304;52.456;13.328;2023-06-01T01:10:19;1.20;;;0.90;;
47575;SDS011;33304;52.456;13.328;2023-06-01T01:12:53;1.77;;;1.10;;
47575;SDS011;33304;52.456;13.328;2023-06-01T01:15:29;1.10;;;1.00;;
47575;SDS011;33304;52.456;13.328;2023-06-01T01:18:02;2.60;;;1.20;;
47575;SDS011;33304;52.456;13.328;2023-06-01T01:20:35;2.93;;;1.17;;
47575;SDS011;33304;52.456;13.328;2023-06-01T01:23:14;1.03;;;1.03;;
47575;SDS011;33304;52.456;13.328;2023-06-01T01:26:03;1.30;;;1.20;;
47575;SDS011;33304;52.456;13.328;2023-06-01T01:28:41;1.23;;;1.07;;
47575;SDS011;33304;52.456;13.328;2023-06-01T01:31:09;1.20;;;0.87;;
47575;SDS011;33304;52.456;13.328;2023-06-01T01:33:39;1.07;;;1.00;;
47575;SDS011;33304;52.456;13.328;2023-06-01T01:36:08;1.30;;;1.20;;
47575;SDS011;33304;52.456;13.328;2023-06-01T01:38:36;1.40;;;1.10;;
47575;SDS011;33304;52.456;13.328;2023-06-01T01:41:03;1.00;;;1.00;;
47575;SDS011;33304;52.456;13.328;2023-06-01T01:43:31;2.60;;;1.40;;
47575;SDS011;33304;52.456;13.328;2023-06-01T01:46:02;2.67;;;1.40;;
47575;SDS011;33304;52.456;13.328;2023-06-01T01:48:39;1.57;;;1.43;;
47575;SDS011;33304;52.456;13.328;2023-06-01T01:51:12;1.20;;;1.20;;
47575;SDS011;33304;52.456;13.328;2023-06-01T01:53:42;1.80;;;1.50;;
47575;SDS011;33304;52.456;13.328;2023-06-01T01:56:12;1.43;;;1.23;;
47575;SDS011;33304;52.456;13.328;2023-06-01T01:58:40;1.33;;;1.13;;
47575;SDS011;33304;52.456;13.328;2023-06-01T02:01:10;1.37;;;1.27;;
47575;SDS011;33304;52.456;13.328;2023-06-01T02:03:38;1.50;;;1.40;;
47575;SDS011;33304;52.456;13.328;2023-06-01T02:06:05;1.47;;;1.30;;
47575;SDS011;33304;52.456;13.328;2023-06-01T02:08:33;1.43;;;1.20;;
47575;SDS011;33304;52.456;13.328;2023-06-01T02:11:00;1.17;;;1.07;;
47575;SDS011;33304;52.456;13.328;2023-06-01T02:13:27;1.40;;;1.30;;
47575;SDS011;33304;52.456;13.328;2023-06-01T02:15:54;1.40;;;1.30;;
47575;SDS011;33304;52.456;13.328;2023-06-01T02:18:23;1.43;;;1.33;;
47575;SDS011;33304;52.456;13.328;2023-06-01T02:20:51;4.10;;;1.33;;
47575;SDS011;33304;52.456;13.328;2023-06-01T02:23:18;1.50;;;1.40;;
47575;SDS011;33304;52.456;13.328;2023-06-01T02:25:45;1.53;;;1.43;;
47575;SDS011;33304;52.456;13.328;2023-06-01T02:28:12;2.73;;;1.50;;
47575;SDS011;33304;52.456;13.328;2023-06-01T02:30:39;1.60;;;1.50;;
47575;SDS011;33304;52.456;13.328;2023-06-01T02:33:06;1.60;;;1.50;;
47575;SDS011;33304;52.456;13.328;2023-06-01T02:35:35;1.13;;;1.10;;
47575;SDS011;33304;52.456;13.328;2023-06-01T02:38:02;2.67;;;1.40;;
47575;SDS011;33304;52.456;13.328;2023-06-01T02:40:31;1.87;;;1.77;;
47575;SDS011;33304;52.456;13.328;2023-06-01T02:42:58;1.13;;;1.03;;
47575;SDS011;33304;52.456;13.328;2023-06-01T02:45:25;1.63;;;1.53;;
47575;SDS011;33304;52.456;13.328;2023-06-01T02:47:52;2.13;;;1.30;;
47575;SDS011;33304;52.456;13.328;2023-06-01T02:50:19;2.63;;;1.67;;
47575;SDS011;33304;52.456;13.328;2023-06-01T02:52:51;3.57;;;1.77;;
47575;SDS011;33304;52.456;13.328;2023-06-01T02:55:18;2.53;;;1.70;;
47575;SDS011;33304;52.456;13.328;2023-06-01T02:57:55;1.40;;;1.30;;
47575;SDS011;33304;52.456;13.328;2023-06-01T03:00:23;1.47;;;1.37;;
47575;SDS011;33304;52.456;13.328;2023-06-01T03:02:50;2.60;;;1.40;;
47575;SDS011;33304;52.456;13.328;2023-06-01T03:05:19;3.13;;;1.30;;
47575;SDS011;33304;52.456;13.328;2023-06-01T03:07:53;3.43;;;2.17;;
47575;SDS011;33304;52.456;13.328;2023-06-01T03:10:25;3.80;;;1.50;;
47575;SDS011;33304;52.456;13.328;2023-06-01T03:12:58;5.33;;;1.97;;
47575;SDS011;33304;52.456;13.328;2023-06-01T03:15:25;1.17;;;1.13;;
47575;SDS011;33304;52.456;13.328;2023-06-01T03:17:53;3.33;;;2.00;;
47575;SDS011;33304;52.456;13.328;2023-06-01T03:20:20;3.00;;;2.50;;
47575;SDS011;33304;52.456;13.328;2023-06-01T03:22:48;2.17;;;1.97;;
47575;SDS011;33304;52.456;13.328;2023-06-01T03:25:18;2.67;;;1.70;;
47575;SDS011;33304;52.456;13.328;2023-06-01T03:27:45;2.53;;;2.27;;
47575;SDS011;33304;52.456;13.328;2023-06-01T03:30:12;3.33;;;1.63;;
47575;SDS011;33304;52.456;13.328;2023-06-01T03:32:42;2.17;;;1.97;;
47575;SDS011;33304;52.456;13.328;2023-06-01T03:35:10;3.20;;;2.57;;
47575;SDS011;33304;52.456;13.328;2023-06-01T03:37:39;3.83;;;2.27;;
47575;SDS011;33304;52.456;13.328;2023-06-01T03:40:07;3.70;;;2.30;;
47575;SDS011;33304;52.456;13.328;2023-06-01T03:42:38;5.07;;;2.17;;
47575;SDS011;33304;52.456;13.328;2023-06-01T03:45:07;4.07;;;2.20;;
47575;SDS011;33304;52.456;13.328;2023-06-01T03:47:35;3.57;;;2.10;;
47575;SDS011;33304;52.456;13.328;2023-06-01T03:50:03;4.10;;;1.93;;
47575;SDS011;33304;52.456;13.328;2023-06-01T03:52:33;3.70;;;2.23;;
47575;SDS011;33304;52.456;13.328;2023-06-01T03:55:02;2.17;;;1.97;;
47575;SDS011;33304;52.456;13.328;2023-06-01T03:57:53;2.30;;;2.10;;
47575;SDS011;33304;52.456;13.328;2023-06-01T04:00:21;2.50;;;2.13;;
47575;SDS011;33304;52.456;13.328;2023-06-01T04:02:53;3.20;;;2.20;;
47575;SDS011;33304;52.456;13.328;2023-06-01T04:05:23;3.83;;;2.90;;
47575;SDS011;33304;52.456;13.328;2023-06-01T04:07:52;3.23;;;2.60;;
47575;SDS011;33304;52.456;13.328;2023-06-01T04:10:21;5.33;;;2.77;;
47575;SDS011;33304;52.456;13.328;2023-06-01T04:12:48;5.33;;;2.63;;
47575;SDS011;33304;52.456;13.328;2023-06-01T04:15:19;2.53;;;2.33;;
47575;SDS011;33304;52.456;13.328;2023-06-01T04:17:47;4.23;;;2.80;;
47575;SDS011;33304;52.456;13.328;2023-06-01T04:20:14;4.33;;;2.70;;
47575;SDS011;33304;52.456;13.328;2023-06-01T04:22:42;4.00;;;3.60;;
47575;SDS011;33304;52.456;13.328;2023-06-01T04:25:13;4.77;;;3.10;;
47575;SDS011;33304;52.456;13.328;2023-06-01T04:27:44;3.40;;;2.57;;
47575;SDS011;33304;52.456;13.328;2023-06-01T04:30:13;4.73;;;2.93;;
47575;SDS011;33304;52.456;13.328;2023-06-01T04:32:43;4.80;;;3.27;;
47575;SDS011;33304;52.456;13.328;2023-06-01T04:35:11;6.00;;;3.43;;
47575;SDS011;33304;52.456;13.328;2023-06-01T04:37:39;3.60;;;3.30;;
47575;SDS011;33304;52.456;13.328;2023-06-01T04:40:09;5.87;;;3.67;;
47575;SDS011;33304;52.456;13.328;2023-06-01T04:42:39;3.67;;;3.10;;
47575;SDS011;33304;52.456;13.328;2023-06-01T04:45:08;7.73;;;3.47;;
47575;SDS011;33304;52.456;13.328;2023-06-01T04:47:37;3.40;;;3.17;;
47575;SDS011;33304;52.456;13.328;2023-06-01T04:50:09;5.27;;;2.80;;
47575;SDS011;33304;52.456;13.328;2023-06-01T04:52:37;3.93;;;3.37;;
47575;SDS011;33304;52.456;13.328;2023-06-01T04:55:05;2.97;;;2.67;;
47575;SDS011;33304;52.456;13.328;2023-06-01T04:57:34;4.33;;;3.10;;
47575;SDS011;33304;52.456;13.328;2023-06-01T05:00:05;4.47;;;3.03;;
47575;SDS011;33304;52.456;13.328;2023-06-01T05:02:36;6.00;;;3.50;;
47575;SDS011;33304;52.456;13.328;2023-06-01T05:05:05;3.27;;;2.93;;
47575;SDS011;33304;52.456;13.328;2023-06-01T05:07:34;4.37;;;2.73;;
47575;SDS011;33304;52.456;13.328;2023-06-01T05:10:02;4.83;;;3.30;;
47575;SDS011;33304;52.456;13.328;2023-06-01T05:12:35;3.40;;;2.93;;
47575;SDS011;33304;52.456;13.328;2023-06-01T05:15:04;3.37;;;3.07;;
47575;SDS011;33304;52.456;13.328;2023-06-01T05:17:33;4.43;;;3.43;;
47575;SDS011;33304;52.456;13.328;2023-06-01T05:20:03;7.40;;;3.57;;
47575;SDS011;33304;52.456;13.328;2023-06-01T05:22:35;4.13;;;3.07;;
47575;SDS011;33304;52.456;13.328;2023-06-01T05:25:03;3.50;;;3.20;;
47575;SDS011;33304;52.456;13.328;2023-06-01T05:27:31;3.00;;;2.67;;
47575;SDS011;33304;52.456;13.328;2023-06-01T05:29:58;2.97;;;2.67;;
47575;SDS011;33304;52.456;13.328;2023-06-01T05:32:26;4.40;;;2.77;;
47575;SDS011;33304;52.456;13.328;2023-06-01T05:34:58;3.03;;;2.70;;
47575;SDS011;33304;52.456;13.328;2023-06-01T05:37:26;2.90;;;2.70;;
47575;SDS011;33304;52.456;13.328;2023-06-01T05:39:55;4.20;;;2.60;;
47575;SDS011;33304;52.456;13.328;2023-06-01T05:42:22;3.30;;;2.77;;
47575;SDS011;33304;52.456;13.328;2023-06-01T05:44:49;3.40;;;2.70;;
47575;SDS011;33304;52.456;13.328;2023-06-01T05:47:16;3.43;;;2.53;;
47575;SDS011;33304;52.456;13.328;2023-06-01T05:49:43;3.83;;;2.60;;
47575;SDS011;33304;52.456;13.328;2023-06-01T05:52:11;3.50;;;2.53;;
47575;SDS011;33304;52.456;13.328;2023-06-01T05:54:39;3.03;;;2.40;;
47575;SDS011;33304;52.456;13.328;2023-06-01T05:57:08;3.20;;;2.77;;
47575;SDS011;33304;52.456;13.328;2023-06-01T05:59:35;4.63;;;2.30;;
47575;SDS011;33304;52.456;13.328;2023-06-01T06:02:03;3.70;;;2.43;;
47575;SDS011;33304;52.456;13.328;2023-06-01T06:04:30;3.93;;;2.10;;
47575;SDS011;33304;52.456;13.328;2023-06-01T06:06:58;3.57;;;2.13;;
47575;SDS011;33304;52.456;13.328;2023-06-01T06:09:25;4.80;;;2.47;;
47575;SDS011;33304;52.456;13.328;2023-06-01T06:11:52;3.37;;;2.47;;
47575;SDS011;33304;52.456;13.328;2023-06-01T06:14:20;3.60;;;2.40;;
47575;SDS011;33304;52.456;13.328;2023-06-01T06:16:47;3.93;;;2.20;;
47575;SDS011;33304;52.456;13.328;2023-06-01T06:19:15;3.63;;;2.30;;
47575;SDS011;33304;52.456;13.328;2023-06-01T06:21:42;3.37;;;2.37;;
47575;SDS011;33304;52.456;13.328;2023-06-01T06:24:09;4.63;;;2.30;;
47575;SDS011;33304;52.456;13.328;2023-06-01T06:26:37;2.60;;;2.13;;
47575;SDS011;33304;52.456;13.328;2023-06-01T06:29:04;4.37;;;2.57;;
47575;SDS011;33304;52.456;13.328;2023-06-01T06:31:33;2.47;;;2.00;;
47575;SDS011;33304;52.456;13.328;2023-06-01T06:34:01;2.87;;;2.03;;
47575;SDS011;33304;52.456;13.328;2023-06-01T06:36:28;3.90;;;2.87;;
47575;SDS011;33304;52.456;13.328;2023-06-01T06:38:55;4.47;;;2.10;;
47575;SDS011;33304;52.456;13.328;2023-06-01T06:41:23;3.47;;;1.93;;
47575;SDS011;33304;52.456;13.328;2023-06-01T06:43:50;2.53;;;2.27;;
47575;SDS011;33304;52.456;13.328;2023-06-01T06:46:17;3.30;;;2.47;;
47575;SDS011;33304;52.456;13.328;2023-06-01T06:48:46;2.87;;;2.63;;
47575;SDS011;33304;52.456;13.328;2023-06-01T06:51:13;3.33;;;2.27;;
47575;SDS011;33304;52.456;13.328;2023-06-01T06:53:40;3.50;;;2.30;;
47575;SDS011;33304;52.456;13.328;2023-06-01T06:56:07;4.27;;;2.07;;
47575;SDS011;33304;52.456;13.328;2023-06-01T06:58:34;2.70;;;2.43;;
47575;SDS011;33304;52.456;13.328;2023-06-01T07:01:01;1.83;;;1.70;;
47575;SDS011;33304;52.456;13.328;2023-06-01T07:03:30;2.27;;;1.97;;
47575;SDS011;33304;52.456;13.328;2023-06-01T07:05:58;3.67;;;2.10;;
47575;SDS011;33304;52.456;13.328;2023-06-01T07:08:26;4.67;;;2.10;;
47575;SDS011;33304;52.456;13.328;2023-06-01T07:10:53;8.10;;;2.60;;
47575;SDS011;33304;52.456;13.328;2023-06-01T07:13:21;3.77;;;1.97;;
47575;SDS011;33304;52.456;13.328;2023-06-01T07:15:48;3.10;;;2.00;;
47575;SDS011;33304;52.456;13.328;2023-06-01T07:18:15;3.47;;;1.60;;
47575;SDS011;33304;52.456;13.328;2023-06-01T07:20:42;2.20;;;2.00;;
47575;SDS011;33304;52.456;13.328;2023-06-01T07:23:11;2.17;;;1.97;;
47575;SDS011;33304;52.456;13.328;2023-06-01T07:25:38;3.23;;;2.27;;
47575;SDS011;33304;52.456;13.328;2023-06-01T07:28:05;2.20;;;2.00;;
47575;SDS011;33304;52.456;13.328;2023-06-01T07:30:34;2.37;;;2.17;;
47575;SDS011;33304;52.456;13.328;2023-06-01T07:33:01;3.63;;;2.10;;
47575;SDS011;33304;52.456;13.328;2023-06-01T07:35:30;3.00;;;1.70;;
47575;SDS011;33304;52.456;13.328;2023-06-01T07:37:59;4.97;;;2.10;;
47575;SDS011;33304;52.456;13.328;2023-06-01T07:40:30;2.07;;;1.77;;
47575;SDS011;33304;52.456;13.328;2023-06-01T07:42:57;2.07;;;1.80;;
47575;SDS011;33304;52.456;13.328;2023-06-01T07:45:24;3.60;;;2.00;;
47575;SDS011;33304;52.456;13.328;2023-06-01T07:47:51;3.90;;;2.03;;
47575;SDS011;33304;52.456;13.328;2023-06-01T07:50:19;1.80;;;1.70;;
47575;SDS011;33304;52.456;13.328;2023-06-01T07:53:05;1.70;;;1.60;;
47575;SDS011;33304;52.456;13.328;2023-06-01T07:55:33;2.63;;;2.23;;
47575;SDS011;33304;52.456;13.328;2023-06-01T07:58:01;5.30;;;1.63;;
47575;SDS011;33304;52.456;13.328;2023-06-01T08:00:29;2.70;;;2.03;;
47575;SDS011;33304;52.456;13.328;2023-06-01T08:02:56;2.70;;;2.07;;
47575;SDS011;33304;52.456;13.328;2023-06-01T08:05:24;2.13;;;1.73;;
47575;SDS011;33304;52.456;13.328;2023-06-01T08:07:51;7.67;;;1.87;;
47575;SDS011;33304;52.456;13.328;2023-06-01T08:10:19;2.40;;;1.80;;
47575;SDS011;33304;52.456;13.328;2023-06-01T08:12:47;2.43;;;2.00;;
47575;SDS011;33304;52.456;13.328;2023-06-01T08:15:15;2.00;;;1.80;;
47575;SDS011;33304;52.456;13.328;2023-06-01T08:17:43;1.60;;;1.50;;
47575;SDS011;33304;52.456;13.328;2023-06-01T08:20:10;1.80;;;1.70;;
47575;SDS011;33304;52.456;13.328;2023-06-01T08:22:37;3.37;;;1.90;;
47575;SDS011;33304;52.456;13.328;2023-06-01T08:25:06;2.50;;;2.20;;
47575;SDS011;33304;52.456;13.328;2023-06-01T08:27:33;2.30;;;1.97;;
47575;SDS011;33304;52.456;13.328;2023-06-01T08:30:02;1.90;;;1.70;;
47575;SDS011;33304;52.456;13.328;2023-06-01T08:32:30;2.37;;;1.63;;
47575;SDS011;33304;52.456;13.328;2023-06-01T08:34:57;2.53;;;1.77;;
47575;SDS011;33304;52.456;13.328;2023-06-01T08:37:24;2.20;;;1.83;;
47575;SDS011;33304;52.456;13.328;2023-06-01T08:39:51;2.77;;;1.67;;
47575;SDS011;33304;52.456;13.328;2023-06-01T08:42:20;4.70;;;2.13;;
47575;SDS011;33304;52.456;13.328;2023-06-01T08:44:53;2.30;;;2.10;;
47575;SDS011;33304;52.456;13.328;2023-06-01T08:47:22;4.03;;;2.10;;
47575;SDS011;33304;52.456;13.328;2023-06-01T08:49:51;2.53;;;1.97;;
47575;SDS011;33304;52.456;13.328;2023-06-01T08:52:20;3.63;;;1.90;;
47575;SDS011;33304;52.456;13.328;2023-06-01T08:54:48;2.10;;;1.63;;
47575;SDS011;33304;52.456;13.328;2023-06-01T09:00:41;2.83;;;1.73;;
47575;SDS011;33304;52.456;13.328;2023-06-01T09:03:10;3.00;;;2.10;;
47575;SDS011;33304;52.456;13.328;2023-06-01T09:05:39;3.30;;;3.00;;
47575;SDS011;33304;52.456;13.328;2023-06-01T09:08:06;12.87;;;4.70;;
47575;SDS011;33304;52.456;13.328;2023-06-01T09:10:35;11.53;;;2.73;;
47575;SDS011;33304;52.456;13.328;2023-06-01T09:13:02;6.40;;;2.53;;
47575;SDS011;33304;52.456;13.328;2023-06-01T09:15:30;2.90;;;2.03;;
47575;SDS011;33304;52.456;13.328;2023-06-01T09:18:04;3.83;;;2.40;;
47575;SDS011;33304;52.456;13.328;2023-06-01T09:20:34;2.50;;;2.30;;
47575;SDS011;33304;52.456;13.328;2023-06-01T09:23:02;1.97;;;1.80;;
47575;SDS011;33304;52.456;13.328;2023-06-01T09:25:31;2.30;;;1.90;;
47575;SDS011;33304;52.456;13.328;2023-06-01T09:28:00;4.00;;;2.03;;
47575;SDS011;33304;52.456;13.328;2023-06-01T09:30:37;5.37;;;2.37;;
47575;SDS011;33304;52.456;13.328;2023-06-01T09:33:11;3.00;;;2.53;;
47575;SDS011;33304;52.456;13.328;2023-06-01T09:35:42;2.37;;;2.17;;
47575;SDS011;33304;52.456;13.328;2023-06-01T09:38:10;2.00;;;1.80;;
47575;SDS011;33304;52.456;13.328;2023-06-01T09:40:38;2.30;;;2.13;;
47575;SDS011;33304;52.456;13.328;2023-06-01T09:43:19;3.00;;;2.03;;
47575;SDS011;33304;52.456;13.328;2023-06-01T09:48:32;3.10;;;2.80;;
47575;SDS011;33304;52.456;13.328;2023-06-01T09:51:01;2.93;;;2.50;;
47575;SDS011;33304;52.456;13.328;2023-06-01T09:53:39;3.10;;;2.80;;
47575;SDS011;33304;52.456;13.328;2023-06-01T09:56:07;3.10;;;2.70;;
47575;SDS011;33304;52.456;13.328;2023-06-01T09:58:34;3.67;;;2.63;;
47575;SDS011;33304;52.456;13.328;2023-06-01T10:01:05;4.47;;;3.47;;
47575;SDS011;33304;52.456;13.328;2023-06-01T10:03:33;4.40;;;3.10;;
47575;SDS011;33304;52.456;13.328;2023-06-01T10:06:05;3.53;;;2.90;;
47575;SDS011;33304;52.456;13.328;2023-06-01T10:08:32;5.97;;;3.40;;
47575;SDS011;33304;52.456;13.328;2023-06-01T10:11:00;6.17;;;3.17;;
47575;SDS011;33304;52.456;13.328;2023-06-01T10:13:28;4.23;;;3.17;;
47575;SDS011;33304;52.456;13.328;2023-06-01T10:15:56;3.43;;;3.13;;
47575;SDS011;33304;52.456;13.328;2023-06-01T10:18:24;3.57;;;3.27;;
47575;SDS011;33304;52.456;13.328;2023-06-01T10:20:52;4.17;;;3.60;;
47575;SDS011;33304;52.456;13.328;2023-06-01T10:23:21;3.87;;;2.90;;
47575;SDS011;33304;52.456;13.328;2023-06-01T10:25:49;4.67;;;3.47;;
47575;SDS011;33304;52.456;13.328;2023-06-01T10:28:18;3.60;;;3.30;;
47575;SDS011;33304;52.456;13.328;2023-06-01T10:30:47;3.70;;;3.17;;
47575;SDS011;33304;52.456;13.328;2023-06-01T10:33:53;3.90;;;3.23;;
47575;SDS011;33304;52.456;13.328;2023-06-01T10:40:12;4.97;;;3.17;;
47575;SDS011;33304;52.456;13.328;2023-06-01T10:42:46;4.17;;;3.50;;
47575;SDS011;33304;52.456;13.328;2023-06-01T10:48:04;9.73;;;3.57;;
47575;SDS011;33304;52.456;13.328;2023-06-01T10:58:20;6.73;;;3.70;;
47575;SDS011;33304;52.456;13.328;2023-06-01T11:00:49;4.03;;;3.50;;
47575;SDS011;33304;52.456;13.328;2023-06-01T11:03:36;6.40;;;3.40;;
47575;SDS011;33304;52.456;13.328;2023-06-01T11:06:22;3.73;;;3.43;;
47575;SDS011;33304;52.456;13.328;2023-06-01T11:08:55;3.67;;;3.30;;
47575;SDS011;33304;52.456;13.328;2023-06-01T11:11:23;3.80;;;3.23;;
47575;SDS011;33304;52.456;13.328;2023-06-01T11:14:28;3.40;;;2.77;;
47575;SDS011;33304;52.456;13.328;2023-06-01T11:19:56;4.70;;;3.10;;
47575;SDS011;33304;52.456;13.328;2023-06-01T11:22:24;3.47;;;2.70;;
47575;SDS011;33304;52.456;13.328;2023-06-01T11:24:53;3.43;;;3.13;;
47575;SDS011;33304;52.456;13.328;2023-06-01T11:27:25;3.43;;;2.90;;
47575;SDS011;33304;52.456;13.328;2023-06-01T11:29:53;4.23;;;2.70;;
47575;SDS011;33304;52.456;13.328;2023-06-01T11:32:21;2.73;;;2.53;;
47575;SDS011;33304;52.456;13.328;2023-06-01T11:34:49;2.90;;;2.70;;
47575;SDS011;33304;52.456;13.328;2023-06-01T11:37:17;4.97;;;3.60;;
47575;SDS011;33304;52.456;13.328;2023-06-01T11:39:45;3.00;;;2.60;;
47575;SDS011;33304;52.456;13.328;2023-06-01T11:42:14;2.87;;;2.47;;
47575;SDS011;33304;52.456;13.328;2023-06-01T11:44:44;2.23;;;2.00;;
47575;SDS011;33304;52.456;13.328;2023-06-01T11:47:12;3.93;;;2.77;;
47575;SDS011;33304;52.456;13.328;2023-06-01T11:49:40;2.40;;;2.20;;
47575;SDS011;33304;52.456;13.328;2023-06-01T11:52:09;2.97;;;2.10;;
47575;SDS011;33304;52.456;13.328;2023-06-01T11:54:37;6.20;;;2.63;;
47575;SDS011;33304;52.456;13.328;2023-06-01T11:57:05;3.40;;;3.20;;
47575;SDS011;33304;52.456;13.328;2023-06-01T11:59:36;4.40;;;3.40;;
47575;SDS011;33304;52.456;13.328;2023-06-01T12:02:16;4.60;;;3.63;;
47575;SDS011;33304;52.456;13.328;2023-06-01T12:04:53;4.10;;;3.70;;
47575;SDS011;33304;52.456;13.328;2023-06-01T12:07:22;3.70;;;3.40;;
47575;SDS011;33304;52.456;13.328;2023-06-01T12:09:50;3.23;;;3.00;;
47575;SDS011;33304;52.456;13.328;2023-06-01T12:12:19;3.97;;;2.90;;
47575;SDS011;33304;52.456;13.328;2023-06-01T12:14:49;3.90;;;3.50;;
47575;SDS011;33304;52.456;13.328;2023-06-01T12:17:18;2.83;;;2.23;;
47575;SDS011;33304;52.456;13.328;2023-06-01T12:19:45;2.50;;;2.00;;
47575;SDS011;33304;52.456;13.328;2023-06-01T12:22:13;3.70;;;2.60;;
47575;SDS011;33304;52.456;13.328;2023-06-01T12:24:41;3.43;;;2.40;;
47575;SDS011;33304;52.456;13.328;2023-06-01T12:27:12;2.10;;;1.90;;
47575;SDS011;33304;52.456;13.328;2023-06-01T12:29:41;2.20;;;2.00;;
47575;SDS011;33304;52.456;13.328;2023-06-01T12:32:09;2.43;;;2.20;;
47575;SDS011;33304;52.456;13.328;2023-06-01T12:34:39;2.27;;;1.93;;
47575;SDS011;33304;52.456;13.328;2023-06-01T12:37:13;2.47;;;2.10;;
47575;SDS011;33304;52.456;13.328;2023-06-01T12:39:41;3.00;;;2.80;;
47575;SDS011;33304;52.456;13.328;2023-06-01T12:42:09;3.90;;;3.30;;
47575;SDS011;33304;52.456;13.328;2023-06-01T12:44:37;3.65;;;3.38;;
47575;SDS011;33304;52.456;13.328;2023-06-01T12:47:07;2.42;;;2.33;;
47575;SDS011;33304;52.456;13.328;2023-06-01T12:49:34;4.15;;;2.55;;
47575;SDS011;33304;52.456;13.328;2023-06-01T12:52:04;2.67;;;2.10;;
47575;SDS011;33304;52.456;13.328;2023-06-01T12:54:32;3.70;;;3.40;;
47575;SDS011;33304;52.456;13.328;2023-06-01T12:56:59;2.70;;;2.50;;
47575;SDS011;33304;52.456;13.328;2023-06-01T12:59:27;2.97;;;2.78;;
47575;SDS011;33304;52.456;13.328;2023-06-01T13:01:54;5.18;;;3.58;;
47575;SDS011;33304;52.456;13.328;2023-06-01T13:04:21;4.05;;;3.85;;
47575;SDS011;33304;52.456;13.328;2023-06-01T13:06:50;4.18;;;3.80;;
47575;SDS011;33304;52.456;13.328;2023-06-01T13:09:18;3.95;;;3.65;;
47575;SDS011;33304;52.456;13.328;2023-06-01T13:11:45;4.00;;;3.40;;
47575;SDS011;33304;52.456;13.328;2023-06-01T13:14:13;4.28;;;2.83;;
47575;SDS011;33304;52.456;13.328;2023-06-01T13:16:40;4.95;;;4.65;;
47575;SDS011;33304;52.456;13.328;2023-06-01T13:19:07;5.88;;;5.47;;
47575;SDS011;33304;52.456;13.328;2023-06-01T13:21:34;4.68;;;4.38;;
47575;SDS011;33304;52.456;13.328;2023-06-01T13:24:02;3.13;;;2.92;;
47575;SDS011;33304;52.456;13.328;2023-06-01T13:26:30;2.80;;;2.58;;
47575;SDS011;33304;52.456;13.328;2023-06-01T13:28:57;2.72;;;2.53;;
47575;SDS011;33304;52.456;13.328;2023-06-01T13:31:24;3.20;;;3.00;;
47575;SDS011;33304;52.456;13.328;2023-06-01T13:33:51;2.97;;;2.78;;
47575;SDS011;33304;52.456;13.328;2023-06-01T13:36:19;3.22;;;2.92;;
47575;SDS011;33304;52.456;13.328;2023-06-01T13:38:46;3.15;;;2.95;;
47575;SDS011;33304;52.456;13.328;2023-06-01T13:41:13;3.60;;;3.30;;
47575;SDS011;33304;52.456;13.328;2023-06-01T13:43:41;4.07;;;3.40;;
47575;SDS011;33304;52.456;13.328;2023-06-01T13:46:08;2.35;;;2.15;;
47575;SDS011;33304;52.456;13.328;2023-06-01T13:48:35;2.40;;;2.30;;
47575;SDS011;33304;52.456;13.328;2023-06-01T13:51:03;3.28;;;3.08;;
47575;SDS011;33304;52.456;13.328;2023-06-01T13:53:31;3.58;;;3.33;;
47575;SDS011;33304;52.456;13.328;2023-06-01T13:55:58;3.10;;;2.90;;
47575;SDS011;33304;52.456;13.328;2023-06-01T13:58:26;2.90;;;2.70;;
47575;SDS011;33304;52.456;13.328;2023-06-01T14:00:54;3.08;;;2.78;;
47575;SDS011;33304;52.456;13.328;2023-06-01T14:03:21;3.33;;;3.05;;
47575;SDS011;33304;52.456;13.328;2023-06-01T14:05:48;3.92;;;3.72;;
47575;SDS011;33304;52.456;13.328;2023-06-01T14:08:16;4.15;;;3.80;;
47575;SDS011;33304;52.456;13.328;2023-06-01T14:10:43;3.78;;;3.50;;
47575;SDS011;33304;52.456;13.328;2023-06-01T14:13:10;4.15;;;3.85;;
47575;SDS011;33304;52.456;13.328;2023-06-01T14:15:37;4.95;;;4.65;;
47575;SDS011;33304;52.456;13.328;2023-06-01T14:18:06;4.13;;;3.92;;
47575;SDS011;33304;52.456;13.328;2023-06-01T14:20:34;4.18;;;3.88;;
47575;SDS011;33304;52.456;13.328;2023-06-01T14:23:03;4.53;;;4.22;;
47575;SDS011;33304;52.456;13.328;2023-06-01T14:25:33;4.38;;;4.18;;
47575;SDS011;33304;52.456;13.328;2023-06-01T14:28:06;5.72;;;4.00;;
47575;SDS011;33304;52.456;13.328;2023-06-01T14:30:33;3.38;;;3.17;;
47575;SDS011;33304;52.456;13.328;2023-06-01T14:33:00;3.10;;;2.58;;
47575;SDS011;33304;52.456;13.328;2023-06-01T14:35:29;3.70;;;3.50;;
47575;SDS011;33304;52.456;13.328;2023-06-01T14:37:56;4.35;;;4.05;;
47575;SDS011;33304;52.456;13.328;2023-06-01T14:40:23;3.00;;;2.80;;
47575;SDS011;33304;52.456;13.328;2023-06-01T14:42:50;3.05;;;2.80;;
47575;SDS011;33304;52.456;13.328;2023-06-01T14:45:17;3.97;;;3.58;;
47575;SDS011;33304;52.456;13.328;2023-06-01T14:47:46;3.22;;;3.03;;
47575;SDS011;33304;52.456;13.328;2023-06-01T14:50:13;3.25;;;3.05;;
47575;SDS011;33304;52.456;13.328;2023-06-01T14:52:42;3.33;;;3.13;;
47575;SDS011;33304;52.456;13.328;2023-06-01T14:55:09;3.35;;;3.15;;
47575;SDS011;33304;52.456;13.328;2023-06-01T14:57:36;3.80;;;3.50;;
47575;SDS011;33304;52.456;13.328;2023-06-01T15:00:03;3.78;;;3.45;;
47575;SDS011;33304;52.456;13.328;2023-06-01T15:02:32;4.13;;;3.72;;
47575;SDS011;33304;52.456;13.328;2023-06-01T15:04:59;3.63;;;3.38;;
47575;SDS011;33304;52.456;13.328;2023-06-01T15:07:26;3.30;;;3.10;;